sensor_id;sensor_type;location;lat;lon;timestamp;P1;durP1;ratioP1;P2;durP2;ratioP2
12623;SDS011;6377;42.836;23.998;2023-01-08T00:01:16;51.73;;;29.63;;
12623;SDS011;6377;42.836;23.998;2023-01-08T00:03:44;50.20;;;30.17;;
12623;SDS011;6377;42.836;23.998;2023-01-08T00:06:12;50.73;;;30.00;;
12623;SDS011;6377;42.836;23.998;2023-01-08T00:08:40;46.33;;;29.10;;
12623;SDS011;6377;42.836;23.998;2023-01-08T00:11:08;50.43;;;29.40;;
12623;SDS011;6377;42.836;23.998;2023-01-08T00:13:36;52.20;;;30.03;;
12623;SDS011;6377;42.836;23.998;2023-01-08T00:16:04;49.20;;;28.53;;
12623;SDS011;6377;42.836;23.998;2023-01-08T00:18:33;48.90;;;29.17;;
12623;SDS011;6377;42.836;23.998;2023-01-08T00:21:00;57.30;;;31.33;;
12623;SDS011;6377;42.836;23.998;2023-01-08T00:23:28;52.87;;;31.97;;
12623;SDS011;6377;42.836;23.998;2023-01-08T00:25:55;56.37;;;33.43;;
12623;SDS011;6377;42.836;23.998;2023-01-08T00:28:23;65.67;;;38.47;;
12623;SDS011;6377;42.836;23.998;2023-01-08T00:30:50;66.83;;;39.03;;
12623;SDS011;6377;42.836;23.998;2023-01-08T00:33:17;57.23;;;34.33;;
12623;SDS011;6377;42.836;23.998;2023-01-08T00:35:46;58.23;;;36.63;;
12623;SDS011;6377;42.836;23.998;2023-01-08T00:38:13;74.57;;;42.60;;
12623;SDS011;6377;42.836;23.998;2023-01-08T00:40:40;64.13;;;38.43;;
12623;SDS011;6377;42.836;23.998;2023-01-08T00:43:07;69.60;;;40.43;;
12623;SDS011;6377;42.836;23.998;2023-01-08T00:45:35;69.30;;;41.53;;
12623;SDS011;6377;42.836;23.998;2023-01-08T00:48:02;61.57;;;38.33;;
12623;SDS011;6377;42.836;23.998;2023-01-08T00:50:29;98.77;;;51.70;;
12623;SDS011;6377;42.836;23.998;2023-01-08T00:52:58;52.90;;;30.27;;
12623;SDS011;6377;42.836;23.998;2023-01-08T00:55:25;123.70;;;62.00;;
12623;SDS011;6377;42.836;23.998;2023-01-08T00:57:52;203.13;;;98.13;;
12623;SDS011;6377;42.836;23.998;2023-01-08T01:00:20;50.63;;;31.57;;
12623;SDS011;6377;42.836;23.998;2023-01-08T01:02:47;45.07;;;26.70;;
12623;SDS011;6377;42.836;23.998;2023-01-08T01:05:14;63.30;;;34.67;;
12623;SDS011;6377;42.836;23.998;2023-01-08T01:07:42;27.30;;;16.10;;
12623;SDS011;6377;42.836;23.998;2023-01-08T01:10:12;29.80;;;17.73;;
12623;SDS011;6377;42.836;23.998;2023-01-08T01:12:40;35.03;;;21.23;;
12623;SDS011;6377;42.836;23.998;2023-01-08T01:15:08;39.70;;;22.93;;
12623;SDS011;6377;42.836;23.998;2023-01-08T01:17:38;31.57;;;18.87;;
12623;SDS011;6377;42.836;23.998;2023-01-08T01:20:07;31.40;;;20.33;;
12623;SDS011;6377;42.836;23.998;2023-01-08T01:22:36;32.57;;;19.83;;
12623;SDS011;6377;42.836;23.998;2023-01-08T01:25:04;42.17;;;24.20;;
12623;SDS011;6377;42.836;23.998;2023-01-08T01:27:34;49.10;;;27.27;;
12623;SDS011;6377;42.836;23.998;2023-01-08T01:30:01;59.90;;;32.43;;
12623;SDS011;6377;42.836;23.998;2023-01-08T01:32:29;56.63;;;32.07;;
12623;SDS011;6377;42.836;23.998;2023-01-08T01:34:57;65.50;;;36.27;;
12623;SDS011;6377;42.836;23.998;2023-01-08T01:37:24;64.87;;;37.30;;
12623;SDS011;6377;42.836;23.998;2023-01-08T01:39:52;63.00;;;35.73;;
12623;SDS011;6377;42.836;23.998;2023-01-08T01:42:20;69.30;;;37.57;;
12623;SDS011;6377;42.836;23.998;2023-01-08T01:45:12;63.20;;;37.77;;
12623;SDS011;6377;42.836;23.998;2023-01-08T01:47:42;79.23;;;43.77;;
12623;SDS011;6377;42.836;23.998;2023-01-08T01:50:12;94.30;;;52.63;;
12623;SDS011;6377;42.836;23.998;2023-01-08T01:52:43;75.97;;;42.10;;
12623;SDS011;6377;42.836;23.998;2023-01-08T01:55:11;68.90;;;36.83;;
12623;SDS011;6377;42.836;23.998;2023-01-08T01:57:40;64.37;;;37.23;;
12623;SDS011;6377;42.836;23.998;2023-01-08T02:00:14;67.27;;;38.23;;
12623;SDS011;6377;42.836;23.998;2023-01-08T02:02:41;70.40;;;40.43;;
12623;SDS011;6377;42.836;23.998;2023-01-08T02:05:09;62.03;;;35.93;;
12623;SDS011;6377;42.836;23.998;2023-01-08T02:07:37;69.33;;;37.43;;
12623;SDS011;6377;42.836;23.998;2023-01-08T02:10:09;68.73;;;39.07;;
12623;SDS011;6377;42.836;23.998;2023-01-08T02:12:43;71.37;;;37.50;;
12623;SDS011;6377;42.836;23.998;2023-01-08T02:15:17;71.93;;;39.37;;
12623;SDS011;6377;42.836;23.998;2023-01-08T02:17:48;48.60;;;28.33;;
12623;SDS011;6377;42.836;23.998;2023-01-08T02:20:23;39.20;;;22.17;;
12623;SDS011;6377;42.836;23.998;2023-01-08T02:22:57;42.20;;;23.37;;
12623;SDS011;6377;42.836;23.998;2023-01-08T02:25:39;44.27;;;23.70;;
12623;SDS011;6377;42.836;23.998;2023-01-08T02:28:30;44.53;;;24.23;;
12623;SDS011;6377;42.836;23.998;2023-01-08T02:31:01;43.20;;;25.07;;
12623;SDS011;6377;42.836;23.998;2023-01-08T02:33:30;37.53;;;22.23;;
12623;SDS011;6377;42.836;23.998;2023-01-08T02:36:13;24.83;;;14.37;;
12623;SDS011;6377;42.836;23.998;2023-01-08T02:38:49;26.87;;;16.53;;
12623;SDS011;6377;42.836;23.998;2023-01-08T02:41:26;32.40;;;17.67;;
12623;SDS011;6377;42.836;23.998;2023-01-08T02:44:04;35.73;;;21.53;;
12623;SDS011;6377;42.836;23.998;2023-01-08T02:46:35;28.40;;;16.83;;
12623;SDS011;6377;42.836;23.998;2023-01-08T02:49:06;40.73;;;25.43;;
12623;SDS011;6377;42.836;23.998;2023-01-08T02:51:37;36.20;;;20.60;;
12623;SDS011;6377;42.836;23.998;2023-01-08T02:54:09;37.70;;;22.23;;
12623;SDS011;6377;42.836;23.998;2023-01-08T02:56:41;55.40;;;30.97;;
12623;SDS011;6377;42.836;23.998;2023-01-08T02:59:13;33.97;;;19.73;;
12623;SDS011;6377;42.836;23.998;2023-01-08T03:01:42;28.33;;;17.70;;
12623;SDS011;6377;42.836;23.998;2023-01-08T03:04:11;30.67;;;19.00;;
12623;SDS011;6377;42.836;23.998;2023-01-08T03:06:43;29.00;;;18.43;;
12623;SDS011;6377;42.836;23.998;2023-01-08T03:09:10;30.33;;;17.47;;
12623;SDS011;6377;42.836;23.998;2023-01-08T03:11:39;30.90;;;17.07;;
12623;SDS011;6377;42.836;23.998;2023-01-08T03:14:13;30.50;;;17.57;;
12623;SDS011;6377;42.836;23.998;2023-01-08T03:16:46;22.20;;;12.53;;
12623;SDS011;6377;42.836;23.998;2023-01-08T03:19:18;25.20;;;15.27;;
12623;SDS011;6377;42.836;23.998;2023-01-08T03:21:48;27.30;;;15.07;;
12623;SDS011;6377;42.836;23.998;2023-01-08T03:24:20;28.47;;;16.03;;
12623;SDS011;6377;42.836;23.998;2023-01-08T03:26:49;31.87;;;16.10;;
12623;SDS011;6377;42.836;23.998;2023-01-08T03:29:20;24.13;;;14.63;;
12623;SDS011;6377;42.836;23.998;2023-01-08T03:31:50;27.17;;;18.80;;
12623;SDS011;6377;42.836;23.998;2023-01-08T03:34:21;28.10;;;16.90;;
12623;SDS011;6377;42.836;23.998;2023-01-08T03:36:51;32.00;;;19.37;;
12623;SDS011;6377;42.836;23.998;2023-01-08T03:39:25;37.57;;;20.80;;
12623;SDS011;6377;42.836;23.998;2023-01-08T03:41:56;38.90;;;21.57;;
12623;SDS011;6377;42.836;23.998;2023-01-08T03:44:29;45.77;;;24.03;;
12623;SDS011;6377;42.836;23.998;2023-01-08T03:46:57;47.63;;;26.43;;
12623;SDS011;6377;42.836;23.998;2023-01-08T03:49:24;47.00;;;26.70;;
12623;SDS011;6377;42.836;23.998;2023-01-08T03:51:54;48.97;;;28.73;;
12623;SDS011;6377;42.836;23.998;2023-01-08T03:54:22;48.03;;;28.33;;
12623;SDS011;6377;42.836;23.998;2023-01-08T03:56:54;63.73;;;31.90;;
12623;SDS011;6377;42.836;23.998;2023-01-08T03:59:22;131.90;;;53.77;;
12623;SDS011;6377;42.836;23.998;2023-01-08T04:01:50;84.47;;;39.10;;
12623;SDS011;6377;42.836;23.998;2023-01-08T04:04:17;62.43;;;33.93;;
12623;SDS011;6377;42.836;23.998;2023-01-08T04:06:45;52.00;;;27.23;;
12623;SDS011;6377;42.836;23.998;2023-01-08T04:09:12;61.50;;;30.37;;
12623;SDS011;6377;42.836;23.998;2023-01-08T04:11:39;53.50;;;28.60;;
12623;SDS011;6377;42.836;23.998;2023-01-08T04:14:06;51.33;;;29.43;;
12623;SDS011;6377;42.836;23.998;2023-01-08T04:16:33;57.90;;;32.77;;
12623;SDS011;6377;42.836;23.998;2023-01-08T04:19:02;42.53;;;24.93;;
12623;SDS011;6377;42.836;23.998;2023-01-08T04:21:29;45.50;;;26.40;;
12623;SDS011;6377;42.836;23.998;2023-01-08T04:23:56;45.40;;;26.30;;
12623;SDS011;6377;42.836;23.998;2023-01-08T04:26:23;36.57;;;22.47;;
12623;SDS011;6377;42.836;23.998;2023-01-08T04:28:50;33.23;;;20.10;;
12623;SDS011;6377;42.836;23.998;2023-01-08T04:31:17;33.50;;;20.83;;
12623;SDS011;6377;42.836;23.998;2023-01-08T04:33:44;27.30;;;16.13;;
12623;SDS011;6377;42.836;23.998;2023-01-08T04:36:13;22.77;;;12.60;;
12623;SDS011;6377;42.836;23.998;2023-01-08T04:38:40;25.10;;;15.93;;
12623;SDS011;6377;42.836;23.998;2023-01-08T04:41:08;20.33;;;14.43;;
12623;SDS011;6377;42.836;23.998;2023-01-08T04:43:35;24.73;;;12.00;;
12623;SDS011;6377;42.836;23.998;2023-01-08T04:46:03;24.47;;;15.27;;
12623;SDS011;6377;42.836;23.998;2023-01-08T04:48:32;27.87;;;15.67;;
12623;SDS011;6377;42.836;23.998;2023-01-08T04:50:59;31.90;;;19.60;;
12623;SDS011;6377;42.836;23.998;2023-01-08T04:53:29;40.50;;;25.60;;
12623;SDS011;6377;42.836;23.998;2023-01-08T04:56:02;51.57;;;31.03;;
12623;SDS011;6377;42.836;23.998;2023-01-08T04:58:30;65.37;;;33.50;;
12623;SDS011;6377;42.836;23.998;2023-01-08T05:00:58;59.40;;;34.40;;
12623;SDS011;6377;42.836;23.998;2023-01-08T05:03:25;62.67;;;34.57;;
12623;SDS011;6377;42.836;23.998;2023-01-08T05:05:52;61.07;;;34.00;;
12623;SDS011;6377;42.836;23.998;2023-01-08T05:08:19;64.37;;;32.87;;
12623;SDS011;6377;42.836;23.998;2023-01-08T05:10:48;64.80;;;32.80;;
12623;SDS011;6377;42.836;23.998;2023-01-08T05:13:15;60.50;;;33.97;;
12623;SDS011;6377;42.836;23.998;2023-01-08T05:15:42;57.17;;;33.43;;
12623;SDS011;6377;42.836;23.998;2023-01-08T05:18:09;59.53;;;33.47;;
12623;SDS011;6377;42.836;23.998;2023-01-08T05:20:36;67.83;;;34.67;;
12623;SDS011;6377;42.836;23.998;2023-01-08T05:23:03;74.10;;;40.37;;
12623;SDS011;6377;42.836;23.998;2023-01-08T05:25:31;98.20;;;47.73;;
12623;SDS011;6377;42.836;23.998;2023-01-08T05:27:59;82.77;;;43.50;;
12623;SDS011;6377;42.836;23.998;2023-01-08T05:30:27;76.17;;;41.47;;
12623;SDS011;6377;42.836;23.998;2023-01-08T05:32:54;70.33;;;38.77;;
12623;SDS011;6377;42.836;23.998;2023-01-08T05:35:21;79.70;;;43.37;;
12623;SDS011;6377;42.836;23.998;2023-01-08T05:37:48;113.93;;;52.93;;
12623;SDS011;6377;42.836;23.998;2023-01-08T05:40:15;190.17;;;79.53;;
12623;SDS011;6377;42.836;23.998;2023-01-08T05:42:42;155.57;;;70.07;;
12623;SDS011;6377;42.836;23.998;2023-01-08T05:45:11;117.43;;;60.80;;
12623;SDS011;6377;42.836;23.998;2023-01-08T05:47:39;140.50;;;75.73;;
12623;SDS011;6377;42.836;23.998;2023-01-08T05:50:07;114.27;;;63.87;;
12623;SDS011;6377;42.836;23.998;2023-01-08T05:52:34;127.13;;;64.67;;
12623;SDS011;6377;42.836;23.998;2023-01-08T05:55:01;116.47;;;61.73;;
12623;SDS011;6377;42.836;23.998;2023-01-08T05:57:29;120.00;;;64.60;;
12623;SDS011;6377;42.836;23.998;2023-01-08T05:59:56;75.57;;;45.13;;
12623;SDS011;6377;42.836;23.998;2023-01-08T06:02:24;85.60;;;49.13;;
12623;SDS011;6377;42.836;23.998;2023-01-08T06:04:52;71.97;;;45.60;;
12623;SDS011;6377;42.836;23.998;2023-01-08T06:07:19;55.03;;;35.90;;
12623;SDS011;6377;42.836;23.998;2023-01-08T06:09:46;61.27;;;38.77;;
12623;SDS011;6377;42.836;23.998;2023-01-08T06:12:13;85.17;;;48.40;;
12623;SDS011;6377;42.836;23.998;2023-01-08T06:14:39;131.73;;;67.07;;
12623;SDS011;6377;42.836;23.998;2023-01-08T06:17:06;138.47;;;69.03;;
12623;SDS011;6377;42.836;23.998;2023-01-08T06:19:35;154.80;;;77.27;;
12623;SDS011;6377;42.836;23.998;2023-01-08T06:22:03;139.63;;;80.57;;
12623;SDS011;6377;42.836;23.998;2023-01-08T06:24:30;145.67;;;77.47;;
12623;SDS011;6377;42.836;23.998;2023-01-08T06:26:57;128.93;;;71.20;;
12623;SDS011;6377;42.836;23.998;2023-01-08T06:29:25;155.53;;;86.27;;
12623;SDS011;6377;42.836;23.998;2023-01-08T06:31:52;140.33;;;76.43;;
12623;SDS011;6377;42.836;23.998;2023-01-08T06:34:19;139.73;;;75.67;;
12623;SDS011;6377;42.836;23.998;2023-01-08T06:36:47;174.20;;;95.37;;
12623;SDS011;6377;42.836;23.998;2023-01-08T06:39:15;168.60;;;93.37;;
12623;SDS011;6377;42.836;23.998;2023-01-08T06:41:42;134.97;;;76.70;;
12623;SDS011;6377;42.836;23.998;2023-01-08T06:44:10;118.67;;;65.17;;
12623;SDS011;6377;42.836;23.998;2023-01-08T06:46:37;108.80;;;59.97;;
12623;SDS011;6377;42.836;23.998;2023-01-08T06:49:04;118.10;;;62.93;;
12623;SDS011;6377;42.836;23.998;2023-01-08T06:51:31;152.43;;;81.40;;
12623;SDS011;6377;42.836;23.998;2023-01-08T06:54:00;143.00;;;81.70;;
12623;SDS011;6377;42.836;23.998;2023-01-08T06:56:27;149.60;;;85.17;;
12623;SDS011;6377;42.836;23.998;2023-01-08T06:58:54;161.27;;;91.07;;
12623;SDS011;6377;42.836;23.998;2023-01-08T07:01:21;184.17;;;103.63;;
12623;SDS011;6377;42.836;23.998;2023-01-08T07:03:49;202.93;;;108.93;;
12623;SDS011;6377;42.836;23.998;2023-01-08T07:06:17;212.00;;;113.57;;
12623;SDS011;6377;42.836;23.998;2023-01-08T07:08:47;212.43;;;113.90;;
12623;SDS011;6377;42.836;23.998;2023-01-08T07:11:16;589.03;;;245.67;;
12623;SDS011;6377;42.836;23.998;2023-01-08T07:13:43;299.47;;;137.30;;
12623;SDS011;6377;42.836;23.998;2023-01-08T07:16:11;423.87;;;181.17;;
12623;SDS011;6377;42.836;23.998;2023-01-08T07:18:40;299.63;;;140.90;;
12623;SDS011;6377;42.836;23.998;2023-01-08T07:21:07;252.93;;;125.97;;
12623;SDS011;6377;42.836;23.998;2023-01-08T07:23:35;162.40;;;86.60;;
12623;SDS011;6377;42.836;23.998;2023-01-08T07:26:02;184.70;;;96.93;;
12623;SDS011;6377;42.836;23.998;2023-01-08T07:28:33;161.57;;;88.90;;
12623;SDS011;6377;42.836;23.998;2023-01-08T07:31:03;144.30;;;80.97;;
12623;SDS011;6377;42.836;23.998;2023-01-08T07:33:31;151.30;;;85.57;;
12623;SDS011;6377;42.836;23.998;2023-01-08T07:35:59;151.60;;;86.37;;
12623;SDS011;6377;42.836;23.998;2023-01-08T07:38:26;132.73;;;81.97;;
12623;SDS011;6377;42.836;23.998;2023-01-08T07:40:53;126.97;;;76.40;;
12623;SDS011;6377;42.836;23.998;2023-01-08T07:43:22;139.13;;;84.57;;
12623;SDS011;6377;42.836;23.998;2023-01-08T07:45:52;134.93;;;80.93;;
12623;SDS011;6377;42.836;23.998;2023-01-08T07:48:19;195.47;;;111.97;;
12623;SDS011;6377;42.836;23.998;2023-01-08T07:50:46;180.20;;;104.40;;
12623;SDS011;6377;42.836;23.998;2023-01-08T07:53:13;230.97;;;129.63;;
12623;SDS011;6377;42.836;23.998;2023-01-08T07:55:42;244.67;;;137.30;;
12623;SDS011;6377;42.836;23.998;2023-01-08T07:58:10;217.80;;;124.40;;
12623;SDS011;6377;42.836;23.998;2023-01-08T08:00:38;249.57;;;141.03;;
12623;SDS011;6377;42.836;23.998;2023-01-08T08:03:07;289.20;;;166.63;;
12623;SDS011;6377;42.836;23.998;2023-01-08T08:05:36;270.73;;;152.77;;
12623;SDS011;6377;42.836;23.998;2023-01-08T08:08:06;143.83;;;86.70;;
12623;SDS011;6377;42.836;23.998;2023-01-08T08:10:34;175.10;;;103.43;;
12623;SDS011;6377;42.836;23.998;2023-01-08T08:13:02;157.00;;;92.50;;
12623;SDS011;6377;42.836;23.998;2023-01-08T08:15:29;119.37;;;70.60;;
12623;SDS011;6377;42.836;23.998;2023-01-08T08:17:57;108.43;;;65.10;;
12623;SDS011;6377;42.836;23.998;2023-01-08T08:20:25;100.10;;;60.83;;
12623;SDS011;6377;42.836;23.998;2023-01-08T08:22:58;85.23;;;54.93;;
12623;SDS011;6377;42.836;23.998;2023-01-08T08:25:26;77.50;;;52.73;;
12623;SDS011;6377;42.836;23.998;2023-01-08T08:27:55;104.10;;;68.07;;
12623;SDS011;6377;42.836;23.998;2023-01-08T08:30:26;101.63;;;65.37;;
12623;SDS011;6377;42.836;23.998;2023-01-08T08:32:56;108.33;;;66.87;;
12623;SDS011;6377;42.836;23.998;2023-01-08T08:35:25;115.47;;;67.67;;
12623;SDS011;6377;42.836;23.998;2023-01-08T08:37:53;102.53;;;65.10;;
12623;SDS011;6377;42.836;23.998;2023-01-08T08:40:21;112.30;;;69.40;;
12623;SDS011;6377;42.836;23.998;2023-01-08T08:42:53;83.27;;;53.10;;
12623;SDS011;6377;42.836;23.998;2023-01-08T08:45:22;72.33;;;48.20;;
12623;SDS011;6377;42.836;23.998;2023-01-08T08:47:49;109.17;;;60.93;;
12623;SDS011;6377;42.836;23.998;2023-01-08T08:50:16;87.97;;;53.63;;
12623;SDS011;6377;42.836;23.998;2023-01-08T08:52:46;120.70;;;67.80;;
12623;SDS011;6377;42.836;23.998;2023-01-08T08:55:19;108.87;;;66.00;;
12623;SDS011;6377;42.836;23.998;2023-01-08T08:57:49;83.93;;;53.20;;
12623;SDS011;6377;42.836;23.998;2023-01-08T09:00:17;77.20;;;47.67;;
12623;SDS011;6377;42.836;23.998;2023-01-08T09:02:44;78.07;;;46.23;;
12623;SDS011;6377;42.836;23.998;2023-01-08T09:05:11;79.67;;;45.73;;
12623;SDS011;6377;42.836;23.998;2023-01-08T09:07:38;61.53;;;38.70;;
12623;SDS011;6377;42.836;23.998;2023-01-08T09:10:07;52.30;;;33.13;;
12623;SDS011;6377;42.836;23.998;2023-01-08T09:12:35;48.73;;;34.27;;
12623;SDS011;6377;42.836;23.998;2023-01-08T09:15:02;41.67;;;31.53;;
12623;SDS011;6377;42.836;23.998;2023-01-08T09:17:30;63.57;;;43.90;;
12623;SDS011;6377;42.836;23.998;2023-01-08T09:19:58;61.73;;;42.20;;
12623;SDS011;6377;42.836;23.998;2023-01-08T09:22:25;52.47;;;33.73;;
12623;SDS011;6377;42.836;23.998;2023-01-08T09:24:52;34.60;;;24.83;;
12623;SDS011;6377;42.836;23.998;2023-01-08T09:27:21;29.50;;;21.60;;
12623;SDS011;6377;42.836;23.998;2023-01-08T09:29:48;33.10;;;22.40;;
12623;SDS011;6377;42.836;23.998;2023-01-08T09:32:15;40.03;;;27.80;;
12623;SDS011;6377;42.836;23.998;2023-01-08T09:34:42;33.57;;;23.73;;
12623;SDS011;6377;42.836;23.998;2023-01-08T09:37:09;33.13;;;22.60;;
12623;SDS011;6377;42.836;23.998;2023-01-08T09:39:37;34.07;;;22.93;;
12623;SDS011;6377;42.836;23.998;2023-01-08T09:42:04;34.63;;;25.50;;
12623;SDS011;6377;42.836;23.998;2023-01-08T09:44:34;38.60;;;25.63;;
12623;SDS011;6377;42.836;23.998;2023-01-08T09:47:04;41.57;;;28.60;;
12623;SDS011;6377;42.836;23.998;2023-01-08T09:49:45;46.27;;;30.97;;
12623;SDS011;6377;42.836;23.998;2023-01-08T09:52:14;41.13;;;30.00;;
12623;SDS011;6377;42.836;23.998;2023-01-08T09:54:41;43.00;;;28.50;;
12623;SDS011;6377;42.836;23.998;2023-01-08T09:57:09;45.73;;;34.07;;
12623;SDS011;6377;42.836;23.998;2023-01-08T09:59:40;55.60;;;39.57;;
12623;SDS011;6377;42.836;23.998;2023-01-08T10:02:10;58.17;;;39.90;;
12623;SDS011;6377;42.836;23.998;2023-01-08T10:04:40;65.27;;;44.83;;
12623;SDS011;6377;42.836;23.998;2023-01-08T10:07:10;58.37;;;41.47;;
12623;SDS011;6377;42.836;23.998;2023-01-08T10:09:45;46.90;;;33.17;;
12623;SDS011;6377;42.836;23.998;2023-01-08T10:12:13;31.20;;;22.90;;
12623;SDS011;6377;42.836;23.998;2023-01-08T10:14:44;31.07;;;23.40;;
12623;SDS011;6377;42.836;23.998;2023-01-08T10:17:16;24.57;;;17.30;;
12623;SDS011;6377;42.836;23.998;2023-01-08T10:19:50;23.43;;;16.60;;
12623;SDS011;6377;42.836;23.998;2023-01-08T10:22:18;18.93;;;14.50;;
12623;SDS011;6377;42.836;23.998;2023-01-08T10:24:48;17.20;;;12.87;;
12623;SDS011;6377;42.836;23.998;2023-01-08T10:27:16;12.03;;;9.50;;
12623;SDS011;6377;42.836;23.998;2023-01-08T10:29:46;12.37;;;8.60;;
12623;SDS011;6377;42.836;23.998;2023-01-08T10:32:16;13.87;;;8.07;;
12623;SDS011;6377;42.836;23.998;2023-01-08T10:34:45;6.67;;;4.80;;
12623;SDS011;6377;42.836;23.998;2023-01-08T10:37:14;5.90;;;4.60;;
12623;SDS011;6377;42.836;23.998;2023-01-08T10:39:53;5.63;;;4.03;;
12623;SDS011;6377;42.836;23.998;2023-01-08T10:42:23;7.67;;;4.67;;
12623;SDS011;6377;42.836;23.998;2023-01-08T10:44:53;13.10;;;8.73;;
12623;SDS011;6377;42.836;23.998;2023-01-08T10:47:25;5.83;;;4.37;;
12623;SDS011;6377;42.836;23.998;2023-01-08T10:49:56;9.90;;;7.20;;
12623;SDS011;6377;42.836;23.998;2023-01-08T10:52:26;6.20;;;4.70;;
12623;SDS011;6377;42.836;23.998;2023-01-08T10:54:55;4.87;;;3.43;;
12623;SDS011;6377;42.836;23.998;2023-01-08T10:57:24;5.27;;;3.70;;
12623;SDS011;6377;42.836;23.998;2023-01-08T10:59:55;4.73;;;4.20;;
12623;SDS011;6377;42.836;23.998;2023-01-08T11:02:29;11.13;;;6.50;;
12623;SDS011;6377;42.836;23.998;2023-01-08T11:04:59;6.90;;;5.00;;
12623;SDS011;6377;42.836;23.998;2023-01-08T11:07:28;8.33;;;3.80;;
12623;SDS011;6377;42.836;23.998;2023-01-08T11:09:59;6.33;;;4.30;;
12623;SDS011;6377;42.836;23.998;2023-01-08T11:12:33;8.47;;;4.50;;
12623;SDS011;6377;42.836;23.998;2023-01-08T11:15:05;25.83;;;17.27;;
12623;SDS011;6377;42.836;23.998;2023-01-08T11:17:49;12.93;;;8.37;;
12623;SDS011;6377;42.836;23.998;2023-01-08T11:20:18;10.57;;;6.53;;
12623;SDS011;6377;42.836;23.998;2023-01-08T11:22:47;7.50;;;5.77;;
12623;SDS011;6377;42.836;23.998;2023-01-08T11:25:17;5.03;;;4.23;;
12623;SDS011;6377;42.836;23.998;2023-01-08T11:27:49;4.03;;;3.00;;
12623;SDS011;6377;42.836;23.998;2023-01-08T11:30:20;2.60;;;2.37;;
12623;SDS011;6377;42.836;23.998;2023-01-08T11:32:50;3.77;;;3.00;;
12623;SDS011;6377;42.836;23.998;2023-01-08T11:35:24;6.90;;;5.10;;
12623;SDS011;6377;42.836;23.998;2023-01-08T11:37:54;10.37;;;5.63;;
12623;SDS011;6377;42.836;23.998;2023-01-08T11:40:27;6.20;;;4.80;;
12623;SDS011;6377;42.836;23.998;2023-01-08T11:45:59;7.70;;;4.80;;
12623;SDS011;6377;42.836;23.998;2023-01-08T11:51:38;22.93;;;11.93;;
12623;SDS011;6377;42.836;23.998;2023-01-08T11:54:19;10.43;;;5.83;;
12623;SDS011;6377;42.836;23.998;2023-01-08T11:56:58;7.17;;;5.60;;
12623;SDS011;6377;42.836;23.998;2023-01-08T11:59:43;9.77;;;5.93;;
12623;SDS011;6377;42.836;23.998;2023-01-08T12:02:21;11.40;;;8.10;;
12623;SDS011;6377;42.836;23.998;2023-01-08T12:08:02;8.67;;;6.60;;
12623;SDS011;6377;42.836;23.998;2023-01-08T12:10:37;8.87;;;5.97;;
12623;SDS011;6377;42.836;23.998;2023-01-08T12:13:16;7.83;;;5.23;;
12623;SDS011;6377;42.836;23.998;2023-01-08T12:15:57;8.80;;;6.10;;
12623;SDS011;6377;42.836;23.998;2023-01-08T12:18:37;9.20;;;5.70;;
12623;SDS011;6377;42.836;23.998;2023-01-08T12:21:19;10.67;;;6.27;;
12623;SDS011;6377;42.836;23.998;2023-01-08T12:26:48;11.00;;;6.70;;
12623;SDS011;6377;42.836;23.998;2023-01-08T12:29:35;17.77;;;9.87;;
12623;SDS011;6377;42.836;23.998;2023-01-08T12:32:22;12.20;;;6.20;;
12623;SDS011;6377;42.836;23.998;2023-01-08T12:34:59;11.73;;;8.83;;
12623;SDS011;6377;42.836;23.998;2023-01-08T12:37:35;6.83;;;4.23;;
12623;SDS011;6377;42.836;23.998;2023-01-08T12:40:11;4.63;;;3.40;;
12623;SDS011;6377;42.836;23.998;2023-01-08T12:42:42;6.43;;;4.00;;
12623;SDS011;6377;42.836;23.998;2023-01-08T12:45:15;14.93;;;9.07;;
12623;SDS011;6377;42.836;23.998;2023-01-08T12:47:46;6.40;;;4.00;;
12623;SDS011;6377;42.836;23.998;2023-01-08T12:50:26;6.43;;;3.50;;
12623;SDS011;6377;42.836;23.998;2023-01-08T12:53:05;5.80;;;3.40;;
12623;SDS011;6377;42.836;23.998;2023-01-08T12:55:41;5.37;;;3.37;;
12623;SDS011;6377;42.836;23.998;2023-01-08T12:58:19;7.67;;;4.80;;
12623;SDS011;6377;42.836;23.998;2023-01-08T13:00:55;7.47;;;4.40;;
12623;SDS011;6377;42.836;23.998;2023-01-08T13:03:31;10.17;;;6.27;;
12623;SDS011;6377;42.836;23.998;2023-01-08T13:06:10;8.80;;;4.97;;
12623;SDS011;6377;42.836;23.998;2023-01-08T13:08:39;10.90;;;8.37;;
12623;SDS011;6377;42.836;23.998;2023-01-08T13:11:10;11.90;;;8.63;;
12623;SDS011;6377;42.836;23.998;2023-01-08T13:13:38;11.13;;;6.70;;
12623;SDS011;6377;42.836;23.998;2023-01-08T13:16:17;14.30;;;9.03;;
12623;SDS011;6377;42.836;23.998;2023-01-08T13:18:55;10.90;;;7.50;;
12623;SDS011;6377;42.836;23.998;2023-01-08T13:21:32;7.87;;;5.43;;
12623;SDS011;6377;42.836;23.998;2023-01-08T13:24:02;11.33;;;8.17;;
12623;SDS011;6377;42.836;23.998;2023-01-08T13:26:44;10.47;;;8.63;;
12623;SDS011;6377;42.836;23.998;2023-01-08T13:29:22;11.83;;;8.03;;
12623;SDS011;6377;42.836;23.998;2023-01-08T13:32:00;14.40;;;9.97;;
12623;SDS011;6377;42.836;23.998;2023-01-08T13:34:37;15.17;;;10.20;;
12623;SDS011;6377;42.836;23.998;2023-01-08T13:37:07;14.97;;;9.07;;
12623;SDS011;6377;42.836;23.998;2023-01-08T13:39:35;12.90;;;9.00;;
12623;SDS011;6377;42.836;23.998;2023-01-08T13:42:22;19.07;;;12.60;;
12623;SDS011;6377;42.836;23.998;2023-01-08T13:44:56;16.23;;;10.23;;
12623;SDS011;6377;42.836;23.998;2023-01-08T13:47:26;22.77;;;14.73;;
12623;SDS011;6377;42.836;23.998;2023-01-08T13:49:57;25.03;;;15.83;;
12623;SDS011;6377;42.836;23.998;2023-01-08T13:52:38;15.27;;;10.30;;
12623;SDS011;6377;42.836;23.998;2023-01-08T13:55:13;16.83;;;11.93;;
12623;SDS011;6377;42.836;23.998;2023-01-08T13:57:43;20.90;;;13.50;;
12623;SDS011;6377;42.836;23.998;2023-01-08T14:00:17;23.07;;;13.47;;
12623;SDS011;6377;42.836;23.998;2023-01-08T14:02:48;16.50;;;11.13;;
12623;SDS011;6377;42.836;23.998;2023-01-08T14:08:03;13.67;;;8.73;;
12623;SDS011;6377;42.836;23.998;2023-01-08T14:10:31;17.23;;;10.97;;
12623;SDS011;6377;42.836;23.998;2023-01-08T14:13:04;14.10;;;8.90;;
12623;SDS011;6377;42.836;23.998;2023-01-08T14:15:34;21.80;;;12.47;;
12623;SDS011;6377;42.836;23.998;2023-01-08T14:18:04;20.63;;;13.77;;
12623;SDS011;6377;42.836;23.998;2023-01-08T14:20:32;27.30;;;16.33;;
12623;SDS011;6377;42.836;23.998;2023-01-08T14:23:07;30.10;;;20.67;;
12623;SDS011;6377;42.836;23.998;2023-01-08T14:25:37;31.03;;;20.03;;
12623;SDS011;6377;42.836;23.998;2023-01-08T14:28:05;58.97;;;37.97;;
12623;SDS011;6377;42.836;23.998;2023-01-08T14:30:45;67.27;;;41.83;;
12623;SDS011;6377;42.836;23.998;2023-01-08T14:33:13;80.30;;;51.83;;
12623;SDS011;6377;42.836;23.998;2023-01-08T14:35:41;62.43;;;40.03;;
12623;SDS011;6377;42.836;23.998;2023-01-08T14:38:11;75.87;;;50.50;;
12623;SDS011;6377;42.836;23.998;2023-01-08T14:40:40;87.57;;;48.10;;
12623;SDS011;6377;42.836;23.998;2023-01-08T14:43:12;76.73;;;45.90;;
12623;SDS011;6377;42.836;23.998;2023-01-08T14:45:44;80.40;;;44.27;;
12623;SDS011;6377;42.836;23.998;2023-01-08T14:48:15;77.77;;;43.63;;
12623;SDS011;6377;42.836;23.998;2023-01-08T14:50:53;103.03;;;53.87;;
12623;SDS011;6377;42.836;23.998;2023-01-08T14:53:29;84.37;;;49.97;;